EZY2987 LSZH-LIRF
Flight info
| Callsign | EZY2987 |
|---|---|
| Flight time | 1h 4m |
| Altitude | 37000 |
| Route | VEBIT T53 GERSA DCT SOSON DCT ODINA DCT EKPAL DCT TINKU DCT XIBIL |
| Aircraft | A320/M-SDE3FGHIRWY/LB1 |
Departure
| Time | 2026-05-06 09:18 |
|---|---|
| Airport | Zürich Airport (LSZH) |
Arrival
| Time | 2026-05-06 10:22 |
|---|---|
| Airport | Rome–Fiumicino Leonardo da Vinci International Airport (LIRF) |
| Time | Latitude | Longitude | Altitude | Speed | Heading |
|---|---|---|---|---|---|
| 2026-05-06 09:03 | 47.45417 | 8.55802 | 1407 ft | 0 kts | 186° |
| 2026-05-06 09:10 | 47.45422 | 8.55803 | 1412 ft | 0 kts | 186° |
| 2026-05-06 09:11 | 47.45435 | 8.55805 | 1409 ft | 2 kts | 186° |
| 2026-05-06 09:11 | 47.45451 | 8.55807 | 1409 ft | 2 kts | 186° |
| 2026-05-06 09:11 | 47.45468 | 8.55807 | 1409 ft | 2 kts | 180° |
| 2026-05-06 09:11 | 47.45485 | 8.55803 | 1408 ft | 2 kts | 145° |
| 2026-05-06 09:12 | 47.45497 | 8.55785 | 1409 ft | 2 kts | 110° |
| 2026-05-06 09:12 | 47.45499 | 8.55778 | 1412 ft | 0 kts | 99° |
| 2026-05-06 09:14 | 47.45499 | 8.55866 | 1407 ft | 18 kts | 94° |
| 2026-05-06 09:14 | 47.45486 | 8.56049 | 1409 ft | 17 kts | 96° |
| 2026-05-06 09:14 | 47.45486 | 8.56218 | 1408 ft | 15 kts | 74° |
| 2026-05-06 09:15 | 47.45530 | 8.56310 | 1412 ft | 7 kts | 49° |
| 2026-05-06 09:15 | 47.45590 | 8.56421 | 1414 ft | 19 kts | 63° |
| 2026-05-06 09:15 | 47.45584 | 8.56614 | 1417 ft | 17 kts | 97° |
| 2026-05-06 09:15 | 47.45574 | 8.56762 | 1422 ft | 11 kts | 97° |
| 2026-05-06 09:16 | 47.45565 | 8.56890 | 1420 ft | 12 kts | 94° |
| 2026-05-06 09:16 | 47.45571 | 8.56981 | 1421 ft | 9 kts | 63° |
| 2026-05-06 09:16 | 47.45578 | 8.56998 | 1422 ft | 0 kts | 57° |
| 2026-05-06 09:16 | 47.45581 | 8.57003 | 1422 ft | 5 kts | 55° |
| 2026-05-06 09:17 | 47.45653 | 8.56992 | 1424 ft | 17 kts | 315° |
| 2026-05-06 09:17 | 47.45667 | 8.56955 | 1424 ft | 0 kts | 274° |
| 2026-05-06 09:17 | 47.45667 | 8.56942 | 1424 ft | 8 kts | 276° |
| 2026-05-06 09:17 | 47.45706 | 8.56406 | 1420 ft | 97 kts | 275° |
| 2026-05-06 09:18 | 47.45806 | 8.55055 | 1534 ft | 153 kts | 277° |
| 2026-05-06 09:18 | 47.45924 | 8.53415 | 2180 ft | 164 kts | 276° |
| 2026-05-06 09:18 | 47.46050 | 8.51618 | 2828 ft | 189 kts | 276° |
| 2026-05-06 09:18 | 47.46196 | 8.49549 | 3566 ft | 215 kts | 275° |
| 2026-05-06 09:19 | 47.45977 | 8.47253 | 4342 ft | 243 kts | 243° |
| 2026-05-06 09:19 | 47.44916 | 8.45180 | 5288 ft | 261 kts | 229° |
| 2026-05-06 09:19 | 47.43692 | 8.43145 | 6543 ft | 268 kts | 228° |
| 2026-05-06 09:19 | 47.42455 | 8.41045 | 7836 ft | 274 kts | 229° |
| 2026-05-06 09:20 | 47.41225 | 8.38856 | 9199 ft | 279 kts | 229° |
| 2026-05-06 09:20 | 47.39999 | 8.36581 | 10365 ft | 293 kts | 230° |
| 2026-05-06 09:20 | 47.38719 | 8.34104 | 10764 ft | 316 kts | 234° |
| 2026-05-06 09:20 | 47.37708 | 8.31082 | 11028 ft | 342 kts | 244° |
| 2026-05-06 09:21 | 47.36680 | 8.27849 | 11552 ft | 352 kts | 241° |
| 2026-05-06 09:21 | 47.35547 | 8.24622 | 12321 ft | 356 kts | 240° |
| 2026-05-06 09:21 | 47.34364 | 8.21392 | 13121 ft | 359 kts | 239° |
| 2026-05-06 09:21 | 47.33165 | 8.18150 | 13872 ft | 362 kts | 239° |
| 2026-05-06 09:22 | 47.31689 | 8.15152 | 14525 ft | 363 kts | 223° |
| 2026-05-06 09:22 | 47.29646 | 8.13000 | 15195 ft | 364 kts | 205° |
| 2026-05-06 09:22 | 47.27221 | 8.11950 | 15884 ft | 367 kts | 186° |
| 2026-05-06 09:22 | 47.24661 | 8.12147 | 16616 ft | 372 kts | 168° |
| 2026-05-06 09:23 | 47.22248 | 8.13588 | 17342 ft | 379 kts | 153° |
| 2026-05-06 09:23 | 47.19957 | 8.15543 | 18042 ft | 382 kts | 152° |
| 2026-05-06 09:23 | 47.17659 | 8.17533 | 18641 ft | 385 kts | 152° |
| 2026-05-06 09:23 | 47.15343 | 8.19545 | 19234 ft | 388 kts | 152° |
| 2026-05-06 09:24 | 47.13013 | 8.21572 | 19814 ft | 391 kts | 152° |
| 2026-05-06 09:24 | 47.10667 | 8.23606 | 20390 ft | 393 kts | 152° |
| 2026-05-06 09:24 | 47.08396 | 8.25559 | 20944 ft | 397 kts | 152° |
| 2026-05-06 09:24 | 47.06003 | 8.27608 | 21521 ft | 400 kts | 153° |
| 2026-05-06 09:25 | 47.03592 | 8.29667 | 22095 ft | 402 kts | 153° |
| 2026-05-06 09:25 | 47.01134 | 8.31760 | 22662 ft | 405 kts | 153° |
| 2026-05-06 09:25 | 46.98692 | 8.33843 | 23223 ft | 407 kts | 152° |
| 2026-05-06 09:25 | 46.96274 | 8.35908 | 23703 ft | 409 kts | 153° |
| 2026-05-06 09:26 | 46.93804 | 8.38014 | 24101 ft | 410 kts | 153° |
| 2026-05-06 09:26 | 46.91332 | 8.40116 | 24465 ft | 412 kts | 153° |
| 2026-05-06 09:26 | 46.88850 | 8.42225 | 24903 ft | 413 kts | 154° |
| 2026-05-06 09:26 | 46.86356 | 8.44340 | 25343 ft | 415 kts | 154° |
| 2026-05-06 09:27 | 46.83855 | 8.46457 | 25749 ft | 417 kts | 154° |
| 2026-05-06 09:27 | 46.81342 | 8.48581 | 26147 ft | 418 kts | 155° |
| 2026-05-06 09:27 | 46.78818 | 8.50711 | 26534 ft | 420 kts | 155° |
| 2026-05-06 09:27 | 46.76290 | 8.52849 | 26890 ft | 422 kts | 155° |
| 2026-05-06 09:28 | 46.73745 | 8.55002 | 27275 ft | 423 kts | 155° |
| 2026-05-06 09:28 | 46.71193 | 8.57160 | 27640 ft | 425 kts | 155° |
| 2026-05-06 09:28 | 46.68628 | 8.59327 | 27830 ft | 427 kts | 156° |
| 2026-05-06 09:28 | 46.66057 | 8.61497 | 28186 ft | 428 kts | 156° |
| 2026-05-06 09:29 | 46.63478 | 8.63669 | 28494 ft | 429 kts | 156° |
| 2026-05-06 09:29 | 46.60894 | 8.65840 | 28956 ft | 428 kts | 156° |
| 2026-05-06 09:29 | 46.58321 | 8.68000 | 29461 ft | 426 kts | 157° |
| 2026-05-06 09:29 | 46.55758 | 8.70147 | 29885 ft | 425 kts | 157° |
| 2026-05-06 09:30 | 46.53194 | 8.72289 | 30231 ft | 424 kts | 158° |
| 2026-05-06 09:30 | 46.50636 | 8.74425 | 30598 ft | 424 kts | 158° |
| 2026-05-06 09:30 | 46.48081 | 8.76558 | 30979 ft | 423 kts | 158° |
| 2026-05-06 09:30 | 46.45537 | 8.78682 | 31321 ft | 421 kts | 158° |
| 2026-05-06 09:31 | 46.43001 | 8.80797 | 31594 ft | 421 kts | 158° |
| 2026-05-06 09:31 | 46.40463 | 8.82912 | 31917 ft | 420 kts | 158° |
| 2026-05-06 09:31 | 46.37934 | 8.85018 | 32249 ft | 419 kts | 158° |
| 2026-05-06 09:31 | 46.35406 | 8.87121 | 32578 ft | 419 kts | 158° |
| 2026-05-06 09:32 | 46.32881 | 8.89222 | 32906 ft | 418 kts | 158° |
| 2026-05-06 09:32 | 46.30365 | 8.91311 | 33229 ft | 417 kts | 159° |
| 2026-05-06 09:32 | 46.27845 | 8.93395 | 33537 ft | 416 kts | 159° |
| 2026-05-06 09:32 | 46.25337 | 8.95463 | 33858 ft | 415 kts | 159° |
| 2026-05-06 09:33 | 46.22831 | 8.97528 | 34140 ft | 415 kts | 159° |
| 2026-05-06 09:33 | 46.20319 | 8.99594 | 34348 ft | 416 kts | 159° |
| 2026-05-06 09:33 | 46.17798 | 9.01665 | 34586 ft | 417 kts | 159° |
| 2026-05-06 09:33 | 46.15275 | 9.03738 | 34802 ft | 419 kts | 158° |
| 2026-05-06 09:34 | 46.12774 | 9.05798 | 34990 ft | 420 kts | 158° |
| 2026-05-06 09:34 | 46.10233 | 9.07892 | 35270 ft | 421 kts | 158° |
| 2026-05-06 09:34 | 46.07654 | 9.10016 | 35541 ft | 422 kts | 158° |
| 2026-05-06 09:34 | 46.05138 | 9.12082 | 35741 ft | 423 kts | 158° |
| 2026-05-06 09:35 | 46.02578 | 9.14176 | 35977 ft | 424 kts | 158° |
| 2026-05-06 09:35 | 46.00013 | 9.16270 | 36173 ft | 425 kts | 158° |
| 2026-05-06 09:35 | 45.97440 | 9.18369 | 36410 ft | 426 kts | 158° |
| 2026-05-06 09:35 | 45.94865 | 9.20472 | 36631 ft | 426 kts | 158° |
| 2026-05-06 09:36 | 45.92284 | 9.22575 | 36818 ft | 427 kts | 158° |
| 2026-05-06 09:36 | 45.87086 | 9.26806 | 36873 ft | 430 kts | 157° |
| 2026-05-06 09:37 | 45.81876 | 9.31055 | 36928 ft | 431 kts | 158° |
| 2026-05-06 09:37 | 45.76669 | 9.35289 | 36972 ft | 430 kts | 158° |
| 2026-05-06 09:38 | 45.71455 | 9.39495 | 37016 ft | 430 kts | 158° |
| 2026-05-06 09:38 | 45.66252 | 9.43695 | 37057 ft | 430 kts | 158° |
| 2026-05-06 09:39 | 45.61045 | 9.47887 | 37081 ft | 429 kts | 158° |
| 2026-05-06 09:39 | 45.55841 | 9.52080 | 37077 ft | 429 kts | 158° |
| 2026-05-06 09:40 | 45.50641 | 9.56253 | 37078 ft | 429 kts | 158° |
| 2026-05-06 09:40 | 45.42875 | 9.62464 | 37033 ft | 428 kts | 159° |
| 2026-05-06 09:41 | 45.37642 | 9.66634 | 36980 ft | 428 kts | 158° |
| 2026-05-06 09:41 | 45.32480 | 9.70752 | 36935 ft | 428 kts | 159° |
| 2026-05-06 09:42 | 45.27276 | 9.74879 | 36889 ft | 428 kts | 159° |
| 2026-05-06 09:42 | 45.22071 | 9.79005 | 36854 ft | 429 kts | 159° |
| 2026-05-06 09:43 | 45.16865 | 9.83129 | 36851 ft | 429 kts | 158° |
| 2026-05-06 09:43 | 45.11657 | 9.87249 | 36847 ft | 429 kts | 159° |
| 2026-05-06 09:44 | 45.06442 | 9.91361 | 36850 ft | 429 kts | 159° |
| 2026-05-06 09:44 | 45.01219 | 9.95465 | 36846 ft | 430 kts | 159° |
| 2026-05-06 09:45 | 44.95988 | 9.99571 | 36849 ft | 430 kts | 159° |
| 2026-05-06 09:45 | 44.90744 | 10.03673 | 36865 ft | 431 kts | 159° |
| 2026-05-06 09:46 | 44.85496 | 10.07779 | 36879 ft | 432 kts | 159° |
| 2026-05-06 09:46 | 44.80243 | 10.11877 | 36884 ft | 432 kts | 159° |
| 2026-05-06 09:47 | 44.74984 | 10.15962 | 36890 ft | 432 kts | 159° |
| 2026-05-06 09:47 | 44.69721 | 10.20040 | 36880 ft | 432 kts | 159° |
| 2026-05-06 09:48 | 44.64465 | 10.24119 | 36876 ft | 432 kts | 159° |
| 2026-05-06 09:48 | 44.59199 | 10.28197 | 36874 ft | 432 kts | 159° |
| 2026-05-06 09:49 | 44.53923 | 10.32260 | 36875 ft | 433 kts | 159° |
| 2026-05-06 09:49 | 44.48638 | 10.36315 | 36890 ft | 433 kts | 159° |
| 2026-05-06 09:50 | 44.43349 | 10.40375 | 36901 ft | 434 kts | 158° |
| 2026-05-06 09:50 | 44.38057 | 10.44438 | 36904 ft | 434 kts | 158° |
| 2026-05-06 09:51 | 44.32765 | 10.48496 | 36912 ft | 434 kts | 158° |
| 2026-05-06 09:51 | 44.28362 | 10.51860 | 36921 ft | 434 kts | 158° |
| 2026-05-06 09:52 | 44.23065 | 10.55895 | 36929 ft | 434 kts | 158° |
| 2026-05-06 09:52 | 44.17775 | 10.59924 | 36937 ft | 433 kts | 158° |
| 2026-05-06 09:53 | 44.12478 | 10.63938 | 36940 ft | 433 kts | 158° |
| 2026-05-06 09:53 | 44.07193 | 10.67931 | 36945 ft | 432 kts | 158° |
| 2026-05-06 09:54 | 44.01905 | 10.71930 | 36951 ft | 432 kts | 158° |
| 2026-05-06 09:54 | 43.96619 | 10.75920 | 36947 ft | 432 kts | 158° |
| 2026-05-06 09:55 | 43.91335 | 10.79906 | 36943 ft | 432 kts | 158° |
| 2026-05-06 09:55 | 43.86046 | 10.83883 | 36944 ft | 432 kts | 158° |
| 2026-05-06 09:56 | 43.80762 | 10.87848 | 36948 ft | 432 kts | 158° |
| 2026-05-06 09:56 | 43.75475 | 10.91794 | 36948 ft | 432 kts | 158° |
| 2026-05-06 09:57 | 43.70188 | 10.95734 | 36943 ft | 432 kts | 158° |
| 2026-05-06 09:57 | 43.64903 | 10.99680 | 36940 ft | 432 kts | 158° |
| 2026-05-06 09:58 | 43.59621 | 11.03614 | 36938 ft | 431 kts | 158° |
| 2026-05-06 09:58 | 43.54332 | 11.07540 | 36939 ft | 431 kts | 158° |
| 2026-05-06 09:59 | 43.49044 | 11.11456 | 36942 ft | 432 kts | 158° |
| 2026-05-06 09:59 | 43.43752 | 11.15362 | 36946 ft | 432 kts | 158° |
| 2026-05-06 10:00 | 43.38459 | 11.19267 | 36952 ft | 432 kts | 158° |
| 2026-05-06 10:00 | 43.33169 | 11.23165 | 36963 ft | 432 kts | 158° |
| 2026-05-06 10:01 | 43.27871 | 11.27065 | 36970 ft | 432 kts | 158° |
| 2026-05-06 10:01 | 43.22609 | 11.30928 | 36971 ft | 432 kts | 158° |
| 2026-05-06 10:02 | 43.17273 | 11.34830 | 36969 ft | 432 kts | 157° |
| 2026-05-06 10:02 | 43.12046 | 11.38652 | 35946 ft | 429 kts | 158° |
| 2026-05-06 10:03 | 43.09477 | 11.40525 | 35711 ft | 418 kts | 158° |
| 2026-05-06 10:03 | 43.06953 | 11.42377 | 35570 ft | 405 kts | 158° |
| 2026-05-06 10:03 | 43.04438 | 11.44218 | 34558 ft | 412 kts | 158° |
| 2026-05-06 10:03 | 43.01841 | 11.46089 | 32928 ft | 432 kts | 158° |
| 2026-05-06 10:04 | 42.99165 | 11.48007 | 31434 ft | 446 kts | 158° |
| 2026-05-06 10:04 | 42.96390 | 11.50002 | 30065 ft | 455 kts | 157° |
| 2026-05-06 10:04 | 42.93571 | 11.52043 | 28506 ft | 462 kts | 157° |
| 2026-05-06 10:04 | 42.90721 | 11.54113 | 26969 ft | 466 kts | 156° |
| 2026-05-06 10:05 | 42.87846 | 11.56205 | 25418 ft | 471 kts | 156° |
| 2026-05-06 10:05 | 42.84943 | 11.58315 | 24192 ft | 472 kts | 156° |
| 2026-05-06 10:05 | 42.82075 | 11.60395 | 23359 ft | 463 kts | 155° |
| 2026-05-06 10:05 | 42.79254 | 11.62439 | 22408 ft | 457 kts | 155° |
| 2026-05-06 10:06 | 42.76460 | 11.64460 | 21519 ft | 452 kts | 156° |
| 2026-05-06 10:06 | 42.73701 | 11.66449 | 20684 ft | 447 kts | 156° |
| 2026-05-06 10:06 | 42.70966 | 11.68412 | 19886 ft | 442 kts | 156° |
| 2026-05-06 10:06 | 42.68257 | 11.70353 | 19119 ft | 438 kts | 156° |
| 2026-05-06 10:07 | 42.65578 | 11.72275 | 18384 ft | 434 kts | 156° |
| 2026-05-06 10:07 | 42.62919 | 11.74184 | 17590 ft | 430 kts | 156° |
| 2026-05-06 10:07 | 42.60289 | 11.76070 | 16833 ft | 425 kts | 156° |
| 2026-05-06 10:07 | 42.57683 | 11.77935 | 16102 ft | 421 kts | 156° |
| 2026-05-06 10:08 | 42.55099 | 11.79778 | 15388 ft | 418 kts | 156° |
| 2026-05-06 10:08 | 42.52540 | 11.81602 | 14704 ft | 414 kts | 156° |
| 2026-05-06 10:08 | 42.50000 | 11.83412 | 14068 ft | 410 kts | 156° |
| 2026-05-06 10:08 | 42.47522 | 11.85182 | 13918 ft | 394 kts | 156° |
| 2026-05-06 10:09 | 42.45123 | 11.86901 | 12723 ft | 390 kts | 156° |
| 2026-05-06 10:09 | 42.42711 | 11.88618 | 11245 ft | 391 kts | 156° |
| 2026-05-06 10:09 | 42.40319 | 11.90314 | 9956 ft | 386 kts | 156° |
| 2026-05-06 10:09 | 42.37960 | 11.91987 | 8590 ft | 379 kts | 156° |
| 2026-05-06 10:10 | 42.35650 | 11.93629 | 7299 ft | 371 kts | 156° |
| 2026-05-06 10:10 | 42.33394 | 11.95234 | 6036 ft | 362 kts | 156° |
| 2026-05-06 10:10 | 42.31196 | 11.96795 | 4767 ft | 352 kts | 156° |
| 2026-05-06 10:10 | 42.29096 | 11.98285 | 4160 ft | 325 kts | 155° |
| 2026-05-06 10:11 | 42.27205 | 11.99633 | 4001 ft | 290 kts | 155° |
| 2026-05-06 10:11 | 42.25530 | 12.00826 | 3996 ft | 255 kts | 156° |
| 2026-05-06 10:11 | 42.24055 | 12.01874 | 4002 ft | 225 kts | 156° |
| 2026-05-06 10:11 | 42.22748 | 12.02802 | 4000 ft | 200 kts | 156° |
| 2026-05-06 10:12 | 42.21591 | 12.03621 | 3984 ft | 177 kts | 157° |
| 2026-05-06 10:12 | 42.20533 | 12.04360 | 3825 ft | 169 kts | 158° |
| 2026-05-06 10:12 | 42.19455 | 12.05082 | 3450 ft | 175 kts | 159° |
| 2026-05-06 10:12 | 42.18372 | 12.05761 | 3259 ft | 168 kts | 160° |
| 2026-05-06 10:13 | 42.17370 | 12.06353 | 2976 ft | 170 kts | 160° |
| 2026-05-06 10:13 | 42.16301 | 12.07036 | 2688 ft | 169 kts | 156° |
| 2026-05-06 10:13 | 42.15271 | 12.07776 | 2516 ft | 166 kts | 156° |
| 2026-05-06 10:13 | 42.14255 | 12.08500 | 2318 ft | 165 kts | 155° |
| 2026-05-06 10:14 | 42.13253 | 12.09230 | 2121 ft | 161 kts | 155° |
| 2026-05-06 10:14 | 42.12262 | 12.09949 | 2076 ft | 164 kts | 154° |
| 2026-05-06 10:14 | 42.11250 | 12.10697 | 2104 ft | 167 kts | 154° |
| 2026-05-06 10:14 | 42.10224 | 12.11457 | 2161 ft | 170 kts | 154° |
| 2026-05-06 10:15 | 42.09204 | 12.12221 | 2125 ft | 170 kts | 155° |
| 2026-05-06 10:15 | 42.08162 | 12.12950 | 2221 ft | 168 kts | 157° |
| 2026-05-06 10:15 | 42.07115 | 12.13627 | 2343 ft | 166 kts | 158° |
| 2026-05-06 10:15 | 42.06057 | 12.14261 | 2465 ft | 163 kts | 160° |
| 2026-05-06 10:16 | 42.05179 | 12.14759 | 2871 ft | 135 kts | 161° |
| 2026-05-06 10:16 | 42.04282 | 12.15522 | 2274 ft | 157 kts | 147° |
| 2026-05-06 10:16 | 42.03449 | 12.16378 | 2291 ft | 145 kts | 150° |
| 2026-05-06 10:16 | 42.02592 | 12.17030 | 2278 ft | 139 kts | 156° |
| 2026-05-06 10:17 | 42.01743 | 12.17614 | 2272 ft | 135 kts | 157° |
| 2026-05-06 10:17 | 42.00915 | 12.18180 | 2269 ft | 132 kts | 157° |
| 2026-05-06 10:17 | 42.00105 | 12.18738 | 2268 ft | 129 kts | 157° |
| 2026-05-06 10:17 | 41.99307 | 12.19287 | 2265 ft | 129 kts | 157° |
| 2026-05-06 10:18 | 41.98515 | 12.19834 | 2266 ft | 127 kts | 157° |
| 2026-05-06 10:18 | 41.97733 | 12.20375 | 2269 ft | 125 kts | 157° |
| 2026-05-06 10:18 | 41.96965 | 12.20909 | 2268 ft | 124 kts | 156° |
| 2026-05-06 10:18 | 41.96165 | 12.21306 | 2224 ft | 124 kts | 165° |
| 2026-05-06 10:19 | 41.95320 | 12.21656 | 2133 ft | 128 kts | 165° |
| 2026-05-06 10:19 | 41.94472 | 12.22010 | 2071 ft | 128 kts | 165° |
| 2026-05-06 10:19 | 41.93629 | 12.22363 | 1995 ft | 128 kts | 165° |
| 2026-05-06 10:19 | 41.92763 | 12.22732 | 1802 ft | 133 kts | 164° |
| 2026-05-06 10:20 | 41.91885 | 12.23124 | 1663 ft | 133 kts | 163° |
| 2026-05-06 10:20 | 41.90994 | 12.23528 | 1468 ft | 137 kts | 163° |
| 2026-05-06 10:20 | 41.90088 | 12.23938 | 1296 ft | 139 kts | 163° |
| 2026-05-06 10:20 | 41.89161 | 12.24327 | 1116 ft | 140 kts | 165° |
| 2026-05-06 10:21 | 41.88228 | 12.24693 | 932 ft | 140 kts | 165° |
| 2026-05-06 10:21 | 41.87277 | 12.25057 | 722 ft | 143 kts | 165° |
| 2026-05-06 10:21 | 41.86320 | 12.25462 | 541 ft | 145 kts | 163° |
| 2026-05-06 10:21 | 41.85348 | 12.25857 | 254 ft | 146 kts | 164° |
| 2026-05-06 10:22 | 41.84381 | 12.26238 | 40 ft | 144 kts | 163° |
| 2026-05-06 10:22 | 41.83451 | 12.26623 | 14 ft | 135 kts | 161° |
| 2026-05-06 10:22 | 41.82987 | 12.26824 | 12 ft | 4 kts | 161° |
| 2026-05-06 10:22 | 41.82944 | 12.26844 | 12 ft | 29 kts | 163° |
| 2026-05-06 10:23 | 41.82724 | 12.26874 | 12 ft | 27 kts | 184° |
| 2026-05-06 10:23 | 41.82542 | 12.26817 | 10 ft | 26 kts | 193° |
| 2026-05-06 10:23 | 41.82367 | 12.26781 | 11 ft | 25 kts | 182° |
| 2026-05-06 10:23 | 41.82204 | 12.26829 | 11 ft | 24 kts | 163° |
| 2026-05-06 10:24 | 41.82050 | 12.26895 | 11 ft | 22 kts | 162° |
| 2026-05-06 10:24 | 41.81905 | 12.26953 | 11 ft | 21 kts | 162° |
| 2026-05-06 10:24 | 41.81766 | 12.27013 | 12 ft | 21 kts | 161° |
| 2026-05-06 10:24 | 41.81629 | 12.27069 | 12 ft | 20 kts | 163° |
| 2026-05-06 10:25 | 41.81496 | 12.27126 | 12 ft | 20 kts | 162° |
| 2026-05-06 10:25 | 41.81369 | 12.27183 | 12 ft | 19 kts | 163° |
| 2026-05-06 10:25 | 41.81246 | 12.27229 | 12 ft | 19 kts | 165° |
| 2026-05-06 10:25 | 41.81122 | 12.27283 | 12 ft | 19 kts | 161° |
| 2026-05-06 10:26 | 41.80996 | 12.27333 | 13 ft | 19 kts | 163° |
| 2026-05-06 10:26 | 41.80869 | 12.27342 | 13 ft | 19 kts | 185° |
| 2026-05-06 10:26 | 41.80741 | 12.27310 | 13 ft | 19 kts | 190° |
| 2026-05-06 10:26 | 41.80648 | 12.27198 | 13 ft | 19 kts | 242° |
| 2026-05-06 10:27 | 41.80604 | 12.27030 | 13 ft | 19 kts | 251° |
| 2026-05-06 10:27 | 41.80555 | 12.26862 | 15 ft | 20 kts | 248° |
| 2026-05-06 10:27 | 41.80507 | 12.26684 | 15 ft | 21 kts | 250° |
| 2026-05-06 10:27 | 41.80455 | 12.26497 | 15 ft | 22 kts | 249° |
| 2026-05-06 10:28 | 41.80399 | 12.26295 | 17 ft | 24 kts | 249° |
| 2026-05-06 10:28 | 41.80317 | 12.26097 | 14 ft | 25 kts | 216° |
| 2026-05-06 10:28 | 41.80160 | 12.26004 | 14 ft | 25 kts | 205° |
| 2026-05-06 10:28 | 41.80006 | 12.25909 | 15 ft | 24 kts | 204° |
| 2026-05-06 10:29 | 41.79860 | 12.25822 | 14 ft | 17 kts | 189° |
| 2026-05-06 10:29 | 41.79800 | 12.25820 | 14 ft | 8 kts | 206° |
| 2026-05-06 10:29 | 41.79734 | 12.25778 | 15 ft | 5 kts | 197° |
| 2026-05-06 10:29 | 41.79725 | 12.25783 | 14 ft | 7 kts | 155° |
| 2026-05-06 10:30 | 41.79707 | 12.25839 | 16 ft | 0 kts | 114° |
| 2026-05-06 10:30 | 41.79705 | 12.25844 | 16 ft | 0 kts | 114° |